Latest Weather Observations for McCluer Island

IDD60801

Issued at 9:41 pm CST Friday 15 November 2019 (issued every 10 minutes, with the page automatically refreshed every 10 minutes)

About weather observations | Map of weather stations | Latest weather observations for NT | Other Formats
Station Details ID: 014274 Name: MCCLUER ISLAND Lat: -11.05 Lon: 132.98 Height: 1.4 m
Data from the previous 72 hours. | See also: Recent months at McCluer Island
Date/Time
CST
Temp
°C
App
Temp
°C
Dew
Point
°C
Rel
Hum
%
Delta-T
°C
Wind Press
QNH
hPa
Press
MSL
hPa
Rain since
9am
mm
Dir  Spd
km/h
Gust
km/h
Spd
kts
Gust
kts
15/09:30pm 29.0 32.1 24.1 75 3.4 NNE 15 19 8 10 1010.2 - 0.0
15/09:00pm 28.9 31.4 23.8 74 3.5 N 17 20 9 11 1010.0 1010.0 0.0
15/08:30pm 29.0 31.7 24.1 75 3.4 N 17 20 9 11 1009.7 - 0.0
15/08:00pm 29.2 32.0 24.3 75 3.4 N 17 20 9 11 1009.4 - 0.0
15/07:30pm 29.1 31.2 23.8 73 3.7 N 19 20 10 11 1009.2 - 0.0
15/07:00pm 29.2 31.4 23.9 73 3.7 N 19 20 10 11 1008.9 - 0.0
15/06:30pm 29.2 31.0 23.6 72 3.9 NE 20 20 11 11 1008.6 - 0.0
15/06:00pm 29.4 31.4 23.6 71 4.0 N 19 22 10 12 1008.5 1008.5 0.0
15/05:30pm 29.3 30.2 23.3 70 4.1 NNE 24 30 13 16 1008.3 - 0.0
15/05:00pm 29.6 29.7 24.0 72 3.9 NNE 30 33 16 18 1007.8 - 0.0
15/04:30pm 30.0 30.9 24.6 73 3.8 NNE 28 33 15 18 1007.8 - 0.0
15/04:00pm 30.1 31.1 24.7 73 3.8 NNE 28 33 15 18 1008.0 - 0.0
15/03:30pm 30.3 32.5 24.2 70 4.2 NNE 20 24 11 13 1008.7 - 0.0
15/03:00pm 30.0 31.8 23.2 67 4.7 NNE 19 22 10 12 1008.9 1008.9 0.0
15/02:30pm 30.1 32.6 23.8 69 4.4 NNE 17 20 9 11 1009.1 - 0.0
15/02:00pm 29.9 32.4 23.1 67 4.7 N 15 19 8 10 1009.3 - 0.0
15/01:30pm 30.3 33.1 23.7 68 4.6 NNE 15 19 8 10 1009.6 - 0.0
15/01:00pm 30.6 34.7 24.5 70 4.3 NNE 11 15 6 8 1009.9 - 0.0
15/12:30pm 30.3 33.9 23.7 68 4.6 NE 11 13 6 7 1010.3 - 0.0
15/12:00pm 30.5 35.5 23.9 68 4.6 NNE 4 9 2 5 1010.6 1010.6 0.0
15/11:30am 29.8 34.6 22.8 66 4.8 WNW 2 7 1 4 1011.0 - 0.0
15/11:00am 29.8 34.5 23.3 68 4.5 NW 4 7 2 4 1011.0 - 0.0
15/10:30am 29.9 34.6 23.3 67 4.5 WNW 4 7 2 4 1011.4 - 0.0
15/10:00am 29.5 33.7 23.2 69 4.3 N 6 7 3 4 1011.3 - 0.0
15/09:30am 29.5 34.5 23.2 69 4.3 NNE 2 9 1 5 1011.2 - 0.0
15/09:00am 30.1 34.5 23.8 69 4.4 NNE 7 9 4 5 1010.9 1010.9 0.0
15/08:30am 29.2 34.0 22.9 69 4.3 N 2 7 1 4 1010.8 - 0.0
15/08:00am 28.7 33.6 23.1 71 3.8 NE 2 6 1 3 1010.7 - 0.0
15/07:30am 28.1 33.4 23.0 74 3.5 CALM 0 0 0 0 1010.2 - 0.0
15/07:00am 27.6 33.3 23.8 80 2.6 CALM 0 0 0 0 1009.7 - 0.0
15/06:30am 26.6 31.9 23.1 81 2.4 CALM 0 6 0 3 1009.2 - 0.0
15/06:00am 26.2 31.4 22.9 82 2.2 CALM 0 0 0 0 1008.9 1008.9 0.0
15/05:30am 27.5 32.0 22.9 76 3.1 NNW 4 7 2 4 1008.5 - 0.0
15/05:00am 27.7 31.9 23.1 76 3.1 NNW 6 7 3 4 1008.4 - 0.0
15/04:30am 27.9 32.1 23.5 77 3.0 N 7 11 4 6 1008.4 - 0.0
15/04:00am 28.0 31.6 23.1 74 3.3 N 9 11 5 6 1008.5 - 0.0
15/03:30am 28.2 32.7 24.0 78 2.9 N 7 9 4 5 1008.4 - 0.0
15/03:00am 28.2 32.6 23.8 77 3.0 N 7 11 4 6 1008.6 1008.6 0.0
15/02:30am 28.4 32.9 24.0 77 3.0 N 7 9 4 5 1008.8 - 0.0
15/02:00am 28.5 33.1 24.1 77 3.0 N 7 9 4 5 1009.1 - 0.0
15/01:30am 28.6 32.6 23.7 75 3.4 N 9 11 5 6 1009.3 - 0.0
15/01:00am 28.7 32.5 24.0 76 3.3 NE 11 15 6 8 1009.4 - 0.0
15/12:30am 29.1 32.5 24.6 76 3.1 NNE 15 19 8 10 1009.3 - 0.0
15/12:00am 29.2 31.9 24.7 77 3.1 NNE 19 20 10 11 1009.6 1009.6 0.0
 
Date/Time
CST
Temp
°C
App
Temp
°C
Dew
Point
°C
Rel
Hum
%
Delta-T
°C
Wind Press
QNH
hPa
Press
MSL
hPa
Rain since
9am
mm
Dir  Spd
km/h
Gust
km/h
Spd
kts
Gust
kts
14/11:30pm 29.1 32.0 24.4 76 3.3 NNE 17 20 9 11 1009.9 - 0.0
14/11:00pm 29.2 32.9 24.5 76 3.3 NE 13 17 7 9 1010.2 - 0.0
14/10:30pm 29.3 32.7 24.6 76 3.3 NNE 15 17 8 9 1010.3 - 0.0
14/10:00pm 29.2 33.0 24.7 77 3.1 NNE 13 15 7 8 1010.4 - 0.0
14/09:30pm 28.8 32.2 24.1 76 3.3 N 13 15 7 8 1010.0 - 0.0
14/09:00pm 28.9 32.4 24.2 76 3.3 N 13 15 7 8 1009.7 1009.7 0.0
14/08:30pm 28.9 32.4 24.2 76 3.3 N 13 15 7 8 1009.5 - 0.0
14/08:00pm 28.9 32.3 24.0 75 3.4 N 13 15 7 8 1009.1 - 0.0
14/07:30pm 28.9 31.9 24.0 75 3.4 N 15 19 8 10 1008.5 - 0.0
14/07:00pm 29.0 32.3 23.9 74 3.5 N 13 15 7 8 1007.9 - 0.0
14/06:30pm 29.2 32.8 24.3 75 3.4 N 13 17 7 9 1007.7 - 0.0
14/06:00pm 29.4 33.4 23.8 72 3.9 N 9 11 5 6 1007.7 1007.7 0.0
14/05:30pm 29.6 33.1 24.2 73 3.8 NE 13 17 7 9 1007.4 - 0.0
14/05:00pm 29.3 31.2 23.5 71 4.0 NE 19 22 10 12 1007.4 - 0.0
14/04:30pm 29.7 31.8 24.1 72 3.9 NNE 20 24 11 13 1007.3 - 0.0
14/04:00pm 29.7 32.3 23.9 71 4.0 NNE 17 20 9 11 1007.5 - 0.0
14/03:30pm 30.2 32.3 24.1 70 4.2 NE 20 24 11 13 1008.0 - 0.0
14/03:00pm 30.0 31.6 23.2 67 4.7 NE 20 24 11 13 1008.6 1008.6 0.0
14/02:30pm 30.2 32.1 23.4 67 4.7 NE 19 20 10 11 1009.2 - 0.0
14/02:00pm 30.0 32.3 23.4 67 4.5 ENE 17 24 9 13 1009.7 - 0.0
14/01:30pm 31.5 36.0 24.6 67 4.8 NE 9 13 5 7 1010.2 - 0.0
14/01:00pm 31.5 35.5 23.1 61 5.8 E 7 13 4 7 1010.8 - 0.0
14/12:30pm 30.5 33.2 22.1 61 5.7 SSW 11 15 6 8 1011.4 - 0.0
14/12:00pm 31.4 35.0 23.0 61 5.8 SW 9 11 5 6 1011.5 1011.5 0.0
14/11:30am 30.7 34.3 23.1 64 5.2 SSW 9 11 5 6 1011.7 - 0.0
14/11:00am 29.6 33.4 22.8 67 4.6 SW 7 9 4 5 1012.1 - 0.0
14/10:30am 30.0 33.8 22.7 65 5.0 SW 7 11 4 6 1012.2 - 0.0
14/10:00am 29.4 32.9 22.9 68 4.4 SW 9 11 5 6 1012.3 - 0.0
14/09:30am 29.2 33.0 22.7 68 4.4 SW 7 11 4 6 1012.1 - 0.0
14/09:00am 29.9 33.5 23.1 67 4.7 NW 9 13 5 7 1011.7 1011.7 0.0
14/08:30am 29.7 34.0 22.7 66 4.8 W 4 7 2 4 1011.8 - 0.0
14/08:00am 29.1 33.0 22.6 68 4.4 WSW 6 7 3 4 1011.8 - 0.0
14/07:30am 28.3 32.7 22.8 72 3.7 SSW 4 7 2 4 1011.4 - 0.0
14/07:00am 27.3 32.7 23.3 79 2.7 CALM 0 0 0 0 1011.0 - 0.0
14/06:30am 25.6 30.7 22.7 84 2.0 CALM 0 0 0 0 1010.8 - 0.0
14/06:00am 25.6 30.4 22.1 81 2.3 CALM 0 4 0 2 1010.4 1010.4 0.0
14/05:30am 25.9 31.1 22.8 83 2.1 CALM 0 0 0 0 1010.1 - 0.0
14/05:00am 26.2 31.2 22.5 80 2.5 CALM 0 0 0 0 1009.6 - 0.0
14/04:30am 26.7 31.6 23.0 80 2.5 E 2 6 1 3 1009.7 - 0.0
14/04:00am 26.1 29.9 22.8 82 2.2 E 7 7 4 4 1009.8 - 0.0
14/03:30am 26.8 32.0 22.8 79 2.7 CALM 0 0 0 0 1009.8 - 0.0
14/03:00am 26.8 31.3 22.2 76 3.1 E 2 6 1 3 1010.0 1010.0 0.0
14/02:30am 27.8 32.0 23.4 77 3.0 NE 7 11 4 6 1010.2 - 0.0
14/02:00am 28.0 32.0 23.8 78 2.9 ENE 9 13 5 7 1010.7 - 0.0
14/01:30am 28.1 31.4 23.9 78 2.9 NE 13 17 7 9 1010.8 - 0.0
14/01:00am 28.1 30.9 23.7 77 3.0 NNE 15 19 8 10 1011.0 - 0.0
14/12:30am 28.2 31.1 23.8 77 3.0 NE 15 19 8 10 1011.4 - 0.0
14/12:00am 28.3 31.6 23.9 77 3.0 NE 13 17 7 9 1011.6 1011.6 0.0
 
Date/Time
CST
Temp
°C
App
Temp
°C
Dew
Point
°C
Rel
Hum
%
Delta-T
°C
Wind Press
QNH
hPa
Press
MSL
hPa
Rain since
9am
mm
Dir  Spd
km/h
Gust
km/h
Spd
kts
Gust
kts
13/11:30pm 28.7 31.6 24.5 78 2.9 NE 17 19 9 10 1011.8 - 0.0
13/11:00pm 28.4 31.0 24.0 77 3.0 NNE 17 20 9 11 1012.0 - 0.0
13/10:30pm 28.5 31.1 23.9 76 3.2 NNE 17 20 9 11 1012.0 - 0.0
13/10:00pm 28.5 30.9 23.6 75 3.4 NNE 17 22 9 12 1011.6 - 0.0
13/09:30pm 28.6 30.8 23.9 75 3.2 NNE 19 22 10 12 1011.1 - 0.0
13/09:00pm 28.6 30.5 23.5 74 3.5 NNE 19 22 10 12 1010.8 1010.8 0.0
13/08:30pm 28.6 30.4 23.5 74 3.5 NNE 20 24 11 13 1010.4 - 0.0
13/08:00pm 28.8 30.6 23.5 73 3.6 NNE 20 24 11 13 1010.2 - 0.0
13/07:30pm 28.6 29.7 22.3 68 4.3 NNE 20 24 11 13 1009.9 - 0.0
13/07:00pm 28.9 29.8 22.6 69 4.3 NNE 22 24 12 13 1009.7 - 0.0
13/06:30pm 28.8 29.6 21.8 66 4.7 NNE 20 26 11 14 1009.3 - 0.0
13/06:00pm 29.2 29.6 21.7 64 5.0 NNE 22 26 12 14 1009.0 1009.0 0.0
13/05:30pm 29.3 30.2 22.0 64 4.9 NNE 20 24 11 13 1008.8 - 0.0
13/05:00pm 29.5 30.8 22.7 67 4.6 NE 20 24 11 13 1008.8 - 0.0
13/04:30pm 29.0 30.6 23.2 71 4.0 NE 20 24 11 13 1008.9 - 0.0
13/04:00pm 29.7 32.0 24.1 72 3.9 NE 19 22 10 12 1009.3 - 0.0
13/03:30pm 29.5 32.3 23.7 71 4.0 NNE 15 19 8 10 1009.7 - 0.0
13/03:00pm 29.7 32.8 24.1 72 3.9 NE 15 19 8 10 1010.0 1010.0 0.0
13/02:30pm 29.8 32.9 23.5 69 4.3 ENE 13 15 7 8 1010.3 - 0.0
13/02:00pm 29.4 32.3 23.1 69 4.3 ENE 13 15 7 8 1010.5 - 0.0
13/01:30pm 29.9 33.3 24.1 71 4.0 ENE 13 17 7 9 1010.8 - 0.0
13/01:00pm 30.2 33.1 24.4 71 4.0 ENE 17 20 9 11 1011.2 - 0.0
13/12:30pm 29.7 32.1 22.9 67 4.6 ENE 15 19 8 10 1011.6 - 0.0
13/12:00pm 29.9 32.9 23.3 67 4.5 E 13 17 7 9 1012.2 1012.2 0.0
13/11:30am 29.8 32.9 22.8 66 4.8 E 11 15 6 8 1012.6 - 0.0
13/11:00am 30.2 33.2 23.4 67 4.7 E 13 15 7 8 1013.1 - 0.0
13/10:30am 29.5 31.9 23.0 68 4.4 ENE 15 17 8 9 1013.3 - 0.0
13/10:00am 29.6 32.5 23.1 68 4.5 ENE 13 15 7 8 1013.4 - 0.0
13/09:30am 29.7 32.8 23.6 69 4.2 E 13 15 7 8 1013.3 - 0.0
13/09:00am 29.2 32.2 22.7 68 4.4 ENE 11 13 6 7 1013.3 1013.3 0.0
13/08:30am 29.2 32.7 22.9 69 4.3 ENE 9 11 5 6 1013.2 - 0.0
13/08:00am 29.3 33.4 23.3 70 4.1 E 7 11 4 6 1012.9 - 0.0
13/07:30am 28.9 33.2 23.3 72 3.8 E 6 7 3 4 1012.4 - 0.0
13/07:00am 27.6 32.7 23.4 78 2.9 SE 2 6 1 3 1012.1 - 0.0
13/06:30am 26.0 31.1 22.7 82 2.2 CALM 0 0 0 0 1011.9 - 0.0
13/06:00am 26.1 31.2 22.6 81 2.4 CALM 0 0 0 0 1011.8 1011.8 0.0
13/05:30am 26.4 31.4 22.5 79 2.6 CALM 0 0 0 0 1011.4 - 0.0
13/05:00am 27.5 32.0 22.9 76 3.1 N 4 7 2 4 1011.2 - 0.0
13/04:30am 27.6 31.8 23.2 77 3.0 N 6 7 3 4 1010.9 - 0.0
13/04:00am 27.7 31.8 23.3 77 3.0 N 7 9 4 5 1010.9 - 0.0
13/03:30am 27.7 31.9 23.5 78 2.9 N 7 9 4 5 1010.9 - 0.0
13/03:00am 27.8 31.9 23.2 76 3.1 NNE 7 9 4 5 1011.2 1011.2 0.0
13/02:30am 28.0 31.9 23.6 77 3.0 NNE 9 13 5 7 1011.3 - 0.0
13/02:00am 28.1 31.0 23.9 78 2.9 NE 15 19 8 10 1011.6 - 0.0
13/01:30am 28.3 31.0 24.1 78 2.9 NE 17 20 9 11 1011.7 - 0.0
13/01:00am 28.3 30.4 23.7 76 3.2 NE 19 20 10 11 1012.0 - 0.0
13/12:30am 28.5 30.9 24.3 78 2.9 NE 19 22 10 12 1012.2 - 0.0
13/12:00am 28.5 30.6 24.1 77 3.0 NE 20 26 11 14 1012.4 1012.4 0.0
 
Date/Time
CST
Temp
°C
App
Temp
°C
Dew
Point
°C
Rel
Hum
%
Delta-T
°C
Wind Press
QNH
hPa
Press
MSL
hPa
Rain since
9am
mm
Dir  Spd
km/h
Gust
km/h
Spd
kts
Gust
kts
12/11:30pm 28.6 30.6 23.9 75 3.2 NE 20 24 11 13 1012.5 - 0.0
12/11:00pm 28.8 31.2 24.6 78 2.9 NNE 20 22 11 12 1012.7 - 0.0
12/10:30pm 28.7 30.9 24.0 76 3.3 NNE 19 22 10 12 1012.6 - 0.0
12/10:00pm 28.4 30.3 23.5 75 3.4 NNE 19 20 10 11 1012.3 - 0.0

Other formats

Comma delimited format used in spreadsheet applications
http://www.bom.gov.au/fwo/IDD60801/IDD60801.94135.axf

JavaScript Object Notation format (JSON) in row-major order
http://www.bom.gov.au/fwo/IDD60801/IDD60801.94135.json

Data quality

Most of these data are generated automatically and are frequently updated. Quality checks on data are not normally performed. It is possible for incorrect values to appear. Refer to information at About Latest Weather Observations and please check the disclaimer before using these data.